Aviation Digital Data Service (ADDS)

Output produced by METARs form (1319 UTC 17 August 2019)
found at http://aviationweather.gov/metar/data/
 
KJQF 171250Z 00000KT 3/4SM BR OVC001 24/23 A3004